createdAt,value
2022-08-24T00:01:58.078Z,16.90
2022-08-24T00:04:26.144Z,16.90
2022-08-24T00:06:53.680Z,16.90
2022-08-24T00:09:21.359Z,17.00
2022-08-24T00:11:48.930Z,17.00
2022-08-24T00:14:16.466Z,17.00
2022-08-24T00:16:44.059Z,17.00
2022-08-24T00:19:12.204Z,17.00
2022-08-24T00:21:39.729Z,16.90
2022-08-24T00:24:07.361Z,16.90
2022-08-24T00:26:35.492Z,16.90
2022-08-24T00:29:07.431Z,16.90
2022-08-24T00:31:35.880Z,16.90
2022-08-24T00:34:03.705Z,16.90
2022-08-24T00:36:31.572Z,17.00
2022-08-24T00:38:59.474Z,17.00
2022-08-24T00:41:28.272Z,17.10
2022-08-24T00:43:59.457Z,17.10
2022-08-24T00:46:51.592Z,17.10
2022-08-24T00:49:45.519Z,17.10
2022-08-24T00:52:21.289Z,17.10
2022-08-24T00:54:55.310Z,17.00
2022-08-24T00:57:27.683Z,17.00
2022-08-24T01:00:02.269Z,17.10
2022-08-24T01:02:33.930Z,17.10
2022-08-24T01:05:06.970Z,17.10
2022-08-24T01:07:36.877Z,17.10
2022-08-24T01:10:11.812Z,17.10
2022-08-24T01:13:00.493Z,17.10
2022-08-24T01:15:31.295Z,17.20
2022-08-24T01:18:19.157Z,17.20
2022-08-24T01:20:53.014Z,17.10
2022-08-24T01:23:44.494Z,17.20
2022-08-24T01:26:18.345Z,17.20
2022-08-24T01:28:49.472Z,17.10
2022-08-24T01:31:22.328Z,17.00
2022-08-24T01:33:55.341Z,17.00
2022-08-24T01:36:32.014Z,16.80
2022-08-24T01:39:06.341Z,16.80
2022-08-24T01:41:34.101Z,16.70
2022-08-24T01:44:02.684Z,16.70
2022-08-24T01:46:30.553Z,16.70
2022-08-24T01:48:58.526Z,16.70
2022-08-24T01:51:31.302Z,16.70
2022-08-24T01:54:03.002Z,16.70
2022-08-24T01:56:31.454Z,16.70
2022-08-24T01:59:01.494Z,16.70
2022-08-24T02:01:32.102Z,16.80
2022-08-24T02:04:02.582Z,16.70
2022-08-24T02:06:30.654Z,16.50
2022-08-24T02:08:58.209Z,16.60
2022-08-24T02:11:25.951Z,16.60
2022-08-24T02:13:53.509Z,16.70
2022-08-24T02:16:21.397Z,16.70
2022-08-24T02:18:49.027Z,16.70
2022-08-24T02:21:17.709Z,16.70
2022-08-24T02:23:47.831Z,16.60
2022-08-24T02:26:15.400Z,16.60
2022-08-24T02:28:42.903Z,16.60
2022-08-24T02:31:12.457Z,16.50
2022-08-24T02:33:40.973Z,16.50
2022-08-24T02:36:25.125Z,16.50
2022-08-24T02:38:56.300Z,16.50
2022-08-24T02:41:25.720Z,16.40
2022-08-24T02:43:55.810Z,16.40
2022-08-24T02:46:28.798Z,16.30
2022-08-24T02:49:11.374Z,16.40
2022-08-24T02:51:45.736Z,16.40
2022-08-24T02:54:22.208Z,16.50
2022-08-24T02:56:52.478Z,16.50
2022-08-24T02:59:21.389Z,16.40
2022-08-24T03:01:50.476Z,16.40
2022-08-24T03:04:19.755Z,16.40
2022-08-24T03:06:47.622Z,16.40
2022-08-24T03:09:15.501Z,16.40
2022-08-24T03:11:45.573Z,16.40
2022-08-24T03:14:14.475Z,16.40
2022-08-24T03:16:42.376Z,16.40
2022-08-24T03:19:10.030Z,16.40
2022-08-24T03:21:38.786Z,16.50
2022-08-24T03:24:06.478Z,16.50
2022-08-24T03:26:34.728Z,16.40
2022-08-24T03:29:02.276Z,16.40
2022-08-24T03:31:32.428Z,16.30
2022-08-24T03:34:00.591Z,16.30
2022-08-24T03:36:28.241Z,16.30
2022-08-24T03:38:55.816Z,16.30
2022-08-24T03:41:23.858Z,16.40
2022-08-24T03:43:51.604Z,16.40
2022-08-24T03:46:25.464Z,16.40
2022-08-24T03:48:58.158Z,16.40
2022-08-24T03:51:28.503Z,16.40
2022-08-24T03:53:59.081Z,16.30
2022-08-24T03:56:29.273Z,16.30
2022-08-24T03:58:57.543Z,16.30
2022-08-24T04:01:28.751Z,16.40
2022-08-24T04:03:56.952Z,16.40
2022-08-24T04:06:29.915Z,16.40
2022-08-24T04:08:57.896Z,16.30
2022-08-24T04:11:27.714Z,16.30
2022-08-24T04:13:58.079Z,16.30
2022-08-24T04:16:27.703Z,16.30
2022-08-24T04:19:05.443Z,16.40
2022-08-24T04:21:36.591Z,16.40
2022-08-24T04:24:08.872Z,16.40
2022-08-24T04:26:44.928Z,16.40
2022-08-24T04:29:17.393Z,16.30
2022-08-24T04:31:54.217Z,16.30
2022-08-24T04:34:23.218Z,16.30
2022-08-24T04:36:54.144Z,16.30
2022-08-24T04:39:21.721Z,16.30
2022-08-24T04:42:26.456Z,16.20
2022-08-24T04:44:55.410Z,16.20
2022-08-24T04:47:24.647Z,16.20
2022-08-24T04:49:52.331Z,16.20
2022-08-24T04:52:19.939Z,16.10
2022-08-24T04:54:47.814Z,16.10
2022-08-24T04:57:21.959Z,16.00
2022-08-24T04:59:49.865Z,16.10
2022-08-24T05:02:18.257Z,16.10
2022-08-24T05:04:49.075Z,16.10
2022-08-24T05:07:18.436Z,16.00
2022-08-24T05:09:46.060Z,16.00
2022-08-24T05:12:13.722Z,16.00
2022-08-24T05:14:50.344Z,15.90
2022-08-24T05:17:18.069Z,16.00
2022-08-24T05:19:45.668Z,15.90
2022-08-24T05:22:13.328Z,15.90
2022-08-24T05:24:46.639Z,15.90
2022-08-24T05:27:14.430Z,15.90
2022-08-24T05:29:43.331Z,15.90
2022-08-24T05:32:11.504Z,15.90
2022-08-24T05:34:39.375Z,15.90
2022-08-24T05:37:07.160Z,15.90
2022-08-24T05:39:48.990Z,15.90
2022-08-24T05:42:16.602Z,16.00
2022-08-24T05:44:48.769Z,16.00
2022-08-24T05:47:20.391Z,16.00
2022-08-24T05:49:52.957Z,16.10
2022-08-24T05:52:22.741Z,16.10
2022-08-24T05:54:56.509Z,16.10
2022-08-24T05:57:27.240Z,16.10
2022-08-24T06:00:12.291Z,16.10
2022-08-24T06:02:45.893Z,16.10
2022-08-24T06:05:14.590Z,16.10
2022-08-24T06:07:42.597Z,16.00
2022-08-24T06:10:35.329Z,16.10
2022-08-24T06:12:59.495Z,16.10
2022-08-24T06:15:27.735Z,16.20
2022-08-24T06:17:55.372Z,16.20
2022-08-24T06:20:23.010Z,16.20
2022-08-24T06:22:51.236Z,16.20
2022-08-24T06:25:37.993Z,16.10
2022-08-24T06:28:05.574Z,16.10
2022-08-24T06:30:34.949Z,16.10
2022-08-24T06:33:12.400Z,16.10
2022-08-24T06:35:47.159Z,16.10
2022-08-24T06:38:15.532Z,16.10
2022-08-24T06:40:45.964Z,16.20
2022-08-24T06:43:14.201Z,16.20
2022-08-24T06:45:48.975Z,16.20
2022-08-24T06:48:19.417Z,16.20
2022-08-24T06:50:47.922Z,16.20
2022-08-24T06:53:16.517Z,16.20
2022-08-24T06:56:05.464Z,16.20
2022-08-24T06:58:35.864Z,16.20
2022-08-24T07:01:12.910Z,16.20
2022-08-24T07:03:41.187Z,16.20
2022-08-24T07:06:40.703Z,16.10
2022-08-24T07:09:09.665Z,16.20
2022-08-24T07:11:37.257Z,16.10
2022-08-24T07:14:05.766Z,16.20
2022-08-24T07:16:34.298Z,16.10
2022-08-24T07:19:05.571Z,16.10
2022-08-24T07:21:33.365Z,16.10
2022-08-24T07:24:03.439Z,16.10
2022-08-24T07:26:35.263Z,16.10
2022-08-24T07:29:06.724Z,16.00
2022-08-24T07:31:48.981Z,16.00
2022-08-24T07:34:31.230Z,16.10
2022-08-24T07:37:00.576Z,16.10
2022-08-24T07:39:30.390Z,16.20
2022-08-24T07:42:17.423Z,16.20
2022-08-24T07:44:46.573Z,16.30
2022-08-24T07:47:37.135Z,16.30
2022-08-24T07:50:04.610Z,16.30
2022-08-24T07:52:32.387Z,16.30
2022-08-24T07:55:00.300Z,16.30
2022-08-24T07:57:28.329Z,16.20
2022-08-24T07:59:55.877Z,16.20
2022-08-24T08:02:23.526Z,16.20
2022-08-24T08:04:57.687Z,16.20
2022-08-24T08:07:26.856Z,16.20
2022-08-24T08:09:54.415Z,16.20
2022-08-24T08:12:22.117Z,16.10
2022-08-24T08:14:57.814Z,16.00
2022-08-24T08:17:25.883Z,16.10
2022-08-24T08:19:53.662Z,16.10
2022-08-24T08:22:40.288Z,16.10
2022-08-24T08:25:39.144Z,16.10
2022-08-24T08:28:25.260Z,16.20
2022-08-24T08:30:54.355Z,16.00
2022-08-24T08:33:21.991Z,16.00
2022-08-24T08:35:50.401Z,15.90
2022-08-24T08:38:18.116Z,15.90
2022-08-24T08:40:45.606Z,15.90
2022-08-24T08:43:28.496Z,15.90
2022-08-24T08:45:56.342Z,15.90
2022-08-24T08:48:56.033Z,15.90
2022-08-24T08:51:51.908Z,15.80
2022-08-24T08:54:44.954Z,15.80
2022-08-24T08:57:32.873Z,15.90
2022-08-24T09:00:15.820Z,15.80
2022-08-24T09:03:23.664Z,15.90
2022-08-24T09:06:14.148Z,15.90
2022-08-24T09:09:09.369Z,16.00
2022-08-24T09:12:00.636Z,16.10
2022-08-24T09:14:52.525Z,16.10
2022-08-24T09:17:38.741Z,16.10
2022-08-24T09:20:29.091Z,16.10
2022-08-24T09:23:19.560Z,16.20
2022-08-24T09:25:56.514Z,16.30
2022-08-24T09:28:44.700Z,16.30
2022-08-24T09:31:39.195Z,16.30
2022-08-24T09:34:07.766Z,16.30
2022-08-24T09:36:52.105Z,16.30
2022-08-24T09:39:37.849Z,16.30
2022-08-24T09:42:25.764Z,16.20
2022-08-24T09:45:27.464Z,16.10
2022-08-24T09:48:15.657Z,16.20
2022-08-24T09:51:08.423Z,16.10
2022-08-24T09:53:56.803Z,16.10
2022-08-24T09:57:09.346Z,16.20
2022-08-24T09:59:58.214Z,16.30
2022-08-24T10:02:49.081Z,16.30
2022-08-24T10:05:40.331Z,16.30
2022-08-24T10:08:20.067Z,16.30
2022-08-24T10:10:53.628Z,16.30
2022-08-24T10:13:45.783Z,16.30
2022-08-24T10:16:20.757Z,16.30
2022-08-24T10:19:06.602Z,16.30
2022-08-24T10:21:46.797Z,16.10
2022-08-24T10:24:40.602Z,16.20
2022-08-24T10:27:38.713Z,16.10
2022-08-24T10:30:44.007Z,16.00
2022-08-24T10:33:22.276Z,16.10
2022-08-24T10:36:10.949Z,16.00
2022-08-24T10:39:22.197Z,16.00
2022-08-24T10:42:34.317Z,16.10
2022-08-24T10:45:20.549Z,16.00
2022-08-24T10:48:29.828Z,16.10
2022-08-24T10:51:22.692Z,16.20
2022-08-24T10:53:53.208Z,16.10
2022-08-24T10:56:46.618Z,16.10
2022-08-24T10:59:43.329Z,16.20
2022-08-24T11:02:31.086Z,16.20
2022-08-24T11:05:01.591Z,16.20
2022-08-24T11:07:29.630Z,16.30
2022-08-24T11:10:02.916Z,16.40
2022-08-24T11:12:38.289Z,16.40
2022-08-24T11:15:17.212Z,16.30
2022-08-24T11:17:56.732Z,16.30
2022-08-24T11:20:41.790Z,16.30
2022-08-24T11:23:21.808Z,16.30
2022-08-24T11:26:02.400Z,16.40
2022-08-24T11:28:39.342Z,16.40
2022-08-24T11:31:21.670Z,16.40
2022-08-24T11:33:58.488Z,16.40
2022-08-24T11:36:28.707Z,16.40
2022-08-24T11:39:23.670Z,16.40
2022-08-24T11:42:10.165Z,16.50
2022-08-24T11:44:41.295Z,16.60
2022-08-24T11:47:30.459Z,16.50
2022-08-24T11:50:06.502Z,16.50
2022-08-24T11:52:58.498Z,16.50
2022-08-24T11:56:00.229Z,16.50
2022-08-24T11:58:52.570Z,16.50
2022-08-24T12:01:20.299Z,16.40
2022-08-24T12:04:20.097Z,16.50
2022-08-24T12:07:28.914Z,16.50
2022-08-24T12:10:08.793Z,16.50
2022-08-24T12:12:54.902Z,16.60
2022-08-24T12:15:42.775Z,16.60
2022-08-24T12:18:41.780Z,16.60
2022-08-24T12:21:12.876Z,16.70
2022-08-24T12:23:44.675Z,16.80
2022-08-24T12:26:50.392Z,16.80
2022-08-24T12:29:34.971Z,16.90
2022-08-24T12:32:16.381Z,16.80
2022-08-24T12:35:01.840Z,16.80
2022-08-24T12:37:59.285Z,17.00
2022-08-24T12:40:53.418Z,17.10
2022-08-24T12:43:31.987Z,17.40
2022-08-24T12:46:01.537Z,17.70
2022-08-24T12:48:42.739Z,17.90
2022-08-24T12:51:30.571Z,18.10
2022-08-24T12:54:16.822Z,18.60
2022-08-24T12:56:56.797Z,18.40
2022-08-24T12:59:32.350Z,18.80
2022-08-24T13:02:04.918Z,19.00
2022-08-24T13:04:33.011Z,18.90
2022-08-24T13:07:20.096Z,18.90
2022-08-24T13:10:02.788Z,19.00
2022-08-24T13:12:42.008Z,18.90
2022-08-24T13:15:28.112Z,19.00
2022-08-24T13:18:09.555Z,19.00
2022-08-24T13:20:43.763Z,19.00
2022-08-24T13:23:12.037Z,19.00
2022-08-24T13:25:51.418Z,19.00
2022-08-24T13:28:22.223Z,18.90
2022-08-24T13:31:19.912Z,19.20
2022-08-24T13:34:10.838Z,19.30
2022-08-24T13:36:43.026Z,19.40
2022-08-24T13:39:35.113Z,19.60
2022-08-24T13:42:10.066Z,19.70
2022-08-24T13:44:57.906Z,19.80
2022-08-24T13:47:31.580Z,20.00
2022-08-24T13:50:52.024Z,19.90
2022-08-24T13:53:36.412Z,19.90
2022-08-24T13:56:44.792Z,19.90
2022-08-24T13:59:37.195Z,20.00
2022-08-24T14:02:17.074Z,19.90
2022-08-24T14:05:09.495Z,19.70
2022-08-24T14:07:48.879Z,19.70
2022-08-24T14:10:54.205Z,19.50
2022-08-24T14:13:45.127Z,19.60
2022-08-24T14:17:06.791Z,19.50
2022-08-24T14:20:05.071Z,19.50
2022-08-24T14:22:52.521Z,19.60
2022-08-24T14:25:33.159Z,19.50
2022-08-24T14:28:00.769Z,19.40
2022-08-24T14:30:28.343Z,19.50
2022-08-24T14:33:01.838Z,19.60
2022-08-24T14:35:38.369Z,19.60
2022-08-24T14:38:16.827Z,19.50
2022-08-24T14:40:53.348Z,19.40
2022-08-24T14:43:41.753Z,19.40
2022-08-24T14:47:04.770Z,19.40
2022-08-24T14:49:44.570Z,19.30
2022-08-24T14:52:38.238Z,19.40
2022-08-24T14:55:20.711Z,19.60
2022-08-24T14:58:10.150Z,19.90
2022-08-24T15:01:20.081Z,19.90
2022-08-24T15:03:50.429Z,20.00
2022-08-24T15:06:28.772Z,20.20
2022-08-24T15:09:09.199Z,20.30
2022-08-24T15:11:40.859Z,20.20
2022-08-24T15:14:37.378Z,20.10
2022-08-24T15:17:17.296Z,20.20
2022-08-24T15:20:02.459Z,20.20
2022-08-24T15:22:44.692Z,20.10
2022-08-24T15:25:24.312Z,19.90
2022-08-24T15:28:06.075Z,19.70
2022-08-24T15:30:37.295Z,19.80
2022-08-24T15:33:19.766Z,20.00
2022-08-24T15:36:04.401Z,20.10
2022-08-24T15:38:35.511Z,20.00
2022-08-24T15:41:07.920Z,20.00
2022-08-24T15:43:40.301Z,19.90
2022-08-24T15:46:08.894Z,19.80
2022-08-24T15:48:37.335Z,19.80
2022-08-24T15:51:06.010Z,19.70
2022-08-24T15:53:40.474Z,19.80
2022-08-24T15:56:35.730Z,20.00
2022-08-24T15:59:23.408Z,20.10
2022-08-24T16:02:29.930Z,20.10
2022-08-24T16:05:15.921Z,20.20
2022-08-24T16:07:55.708Z,20.10
2022-08-24T16:10:30.985Z,20.10
2022-08-24T16:13:09.055Z,20.10
2022-08-24T16:15:53.819Z,19.90
2022-08-24T16:18:21.890Z,19.90
2022-08-24T16:20:51.088Z,19.80
2022-08-24T16:23:27.492Z,19.60
2022-08-24T16:26:19.522Z,19.60
2022-08-24T16:28:47.766Z,19.50
2022-08-24T16:31:41.037Z,19.40
2022-08-24T16:34:20.665Z,19.40
2022-08-24T16:36:48.840Z,19.40
2022-08-24T16:39:16.456Z,19.40
2022-08-24T16:41:44.371Z,19.40
2022-08-24T16:44:12.493Z,19.40
2022-08-24T16:46:40.419Z,19.30
2022-08-24T16:49:12.573Z,19.30
2022-08-24T16:51:41.117Z,19.20
2022-08-24T16:54:13.670Z,19.20
2022-08-24T16:56:42.715Z,19.10
2022-08-24T16:59:18.623Z,19.00
2022-08-24T17:01:50.241Z,18.90
2022-08-24T17:04:18.237Z,18.80
2022-08-24T17:06:48.360Z,18.80
2022-08-24T17:09:19.286Z,18.80
2022-08-24T17:11:47.172Z,18.70
2022-08-24T17:14:15.478Z,18.60
2022-08-24T17:16:43.662Z,18.60
2022-08-24T17:19:18.129Z,18.50
2022-08-24T17:21:45.726Z,18.40
2022-08-24T17:24:13.572Z,18.40
2022-08-24T17:26:48.394Z,18.30
2022-08-24T17:29:18.608Z,18.30
2022-08-24T17:31:50.061Z,18.30
2022-08-24T17:34:21.297Z,18.40
2022-08-24T17:36:51.372Z,18.40
2022-08-24T17:39:19.910Z,18.40
2022-08-24T17:41:47.706Z,18.40
2022-08-24T17:44:21.132Z,18.40
2022-08-24T17:46:50.643Z,18.40
2022-08-24T17:49:18.441Z,18.30
2022-08-24T17:51:46.674Z,18.30
2022-08-24T17:54:14.319Z,18.20
2022-08-24T17:56:42.128Z,18.20
2022-08-24T17:59:24.812Z,18.20
2022-08-24T18:01:58.746Z,18.20
2022-08-24T18:04:29.876Z,18.20
2022-08-24T18:07:01.213Z,18.20
2022-08-24T18:09:56.695Z,18.10
2022-08-24T18:12:25.501Z,18.10
2022-08-24T18:14:53.652Z,18.10
2022-08-24T18:17:36.032Z,18.00
2022-08-24T18:20:05.084Z,18.00
2022-08-24T18:22:32.589Z,18.00
2022-08-24T18:25:00.178Z,18.00
2022-08-24T18:27:33.590Z,18.00
2022-08-24T18:30:05.158Z,17.90
2022-08-24T18:32:37.585Z,17.90
2022-08-24T18:35:07.997Z,17.80
2022-08-24T18:37:35.560Z,17.80
2022-08-24T18:40:04.322Z,17.80
2022-08-24T18:42:33.530Z,17.80
2022-08-24T18:45:02.777Z,17.80
2022-08-24T18:47:30.376Z,17.70
2022-08-24T18:49:57.961Z,17.70
2022-08-24T18:52:26.263Z,17.70
2022-08-24T18:54:54.330Z,17.60
2022-08-24T18:57:21.899Z,17.60
2022-08-24T18:59:49.418Z,17.50
2022-08-24T19:02:33.372Z,17.50
2022-08-24T19:05:11.873Z,17.40
2022-08-24T19:07:42.487Z,17.40
2022-08-24T19:10:12.357Z,17.40
2022-08-24T19:12:46.881Z,17.30
2022-08-24T19:15:38.996Z,17.20
2022-08-24T19:18:05.467Z,17.20
2022-08-24T19:20:35.218Z,17.20
2022-08-24T19:23:09.342Z,17.20
2022-08-24T19:25:38.613Z,17.10
2022-08-24T19:28:06.690Z,17.00
2022-08-24T19:30:34.826Z,17.00
2022-08-24T19:33:03.427Z,17.00
2022-08-24T19:35:34.764Z,17.00
2022-08-24T19:38:03.184Z,16.90
2022-08-24T19:40:30.915Z,16.90
2022-08-24T19:42:59.078Z,16.90
2022-08-24T19:45:45.530Z,16.90
2022-08-24T19:48:13.664Z,16.90
2022-08-24T19:50:41.406Z,16.80
2022-08-24T19:53:10.415Z,16.80
2022-08-24T19:55:38.494Z,16.70
2022-08-24T19:58:18.540Z,16.70
2022-08-24T20:00:51.078Z,16.60
2022-08-24T20:03:19.440Z,16.60
2022-08-24T20:05:47.014Z,16.60
2022-08-24T20:08:14.944Z,16.50
2022-08-24T20:10:42.645Z,16.40
2022-08-24T20:13:10.251Z,16.50
2022-08-24T20:15:38.237Z,16.50
2022-08-24T20:18:06.453Z,16.60
2022-08-24T20:20:34.350Z,16.70
2022-08-24T20:23:06.081Z,16.60
2022-08-24T20:25:36.172Z,16.70
2022-08-24T20:28:28.623Z,16.60
2022-08-24T20:30:53.426Z,16.60
2022-08-24T20:33:21.320Z,16.60
2022-08-24T20:35:49.665Z,16.40
2022-08-24T20:38:20.050Z,16.30
2022-08-24T20:40:48.862Z,16.20
2022-08-24T20:43:16.981Z,16.10
2022-08-24T20:45:45.421Z,16.10
2022-08-24T20:48:14.444Z,16.10
2022-08-24T20:50:43.561Z,16.10
2022-08-24T20:53:12.076Z,16.10
2022-08-24T20:55:41.610Z,16.00
2022-08-24T20:58:09.868Z,16.00
2022-08-24T21:00:37.982Z,16.00
2022-08-24T21:03:05.682Z,15.90
2022-08-24T21:05:33.395Z,15.90
2022-08-24T21:08:00.962Z,15.80
2022-08-24T21:10:28.655Z,15.80
2022-08-24T21:12:56.205Z,15.80
2022-08-24T21:15:23.932Z,15.80
2022-08-24T21:17:51.604Z,15.80
2022-08-24T21:20:20.462Z,15.70
2022-08-24T21:22:48.584Z,15.70
2022-08-24T21:25:17.583Z,15.70
2022-08-24T21:27:48.021Z,15.70
2022-08-24T21:30:21.341Z,15.80
2022-08-24T21:33:07.927Z,15.70
2022-08-24T21:35:35.841Z,15.70
2022-08-24T21:38:05.561Z,15.70
2022-08-24T21:40:36.241Z,15.70
2022-08-24T21:43:14.857Z,15.60
2022-08-24T21:45:46.629Z,15.60
2022-08-24T21:48:14.645Z,15.50
2022-08-24T21:50:42.641Z,15.60
2022-08-24T21:53:10.372Z,15.60
2022-08-24T21:55:39.121Z,15.60
2022-08-24T21:58:06.804Z,15.50
2022-08-24T22:00:35.675Z,15.50
2022-08-24T22:03:04.597Z,15.50
2022-08-24T22:05:32.552Z,15.50
2022-08-24T22:08:00.113Z,15.60
2022-08-24T22:10:27.755Z,15.50
2022-08-24T22:12:55.330Z,15.50
2022-08-24T22:15:23.243Z,15.50
2022-08-24T22:17:52.783Z,15.40
2022-08-24T22:20:23.035Z,15.40
2022-08-24T22:22:51.575Z,15.40
2022-08-24T22:25:19.136Z,15.40
2022-08-24T22:27:47.358Z,15.50
2022-08-24T22:30:17.868Z,15.50
2022-08-24T22:32:46.370Z,15.50
2022-08-24T22:35:14.386Z,15.50
2022-08-24T22:37:42.472Z,15.50
2022-08-24T22:40:12.703Z,15.50
2022-08-24T22:42:41.117Z,15.40
2022-08-24T22:45:10.007Z,15.50
2022-08-24T22:47:38.235Z,15.40
2022-08-24T22:50:07.176Z,15.40
2022-08-24T22:52:34.784Z,15.30
2022-08-24T22:55:03.169Z,15.30
2022-08-24T22:57:30.813Z,15.40
2022-08-24T22:59:58.369Z,15.30
2022-08-24T23:02:26.097Z,15.20
2022-08-24T23:04:53.821Z,15.20
2022-08-24T23:07:21.834Z,15.10
2022-08-24T23:09:50.129Z,15.10
2022-08-24T23:12:22.452Z,15.00
2022-08-24T23:14:51.695Z,15.00
2022-08-24T23:17:20.435Z,15.00
2022-08-24T23:20:01.328Z,14.90
2022-08-24T23:22:35.598Z,14.90
2022-08-24T23:25:04.295Z,14.90
2022-08-24T23:27:37.178Z,14.80
2022-08-24T23:30:15.064Z,14.80
2022-08-24T23:32:43.776Z,14.80
2022-08-24T23:35:11.358Z,14.80
2022-08-24T23:37:39.150Z,14.80
2022-08-24T23:40:07.459Z,14.80
2022-08-24T23:42:35.110Z,14.90
2022-08-24T23:45:02.756Z,14.90
2022-08-24T23:47:30.332Z,15.00
2022-08-24T23:50:06.770Z,15.10
2022-08-24T23:52:39.802Z,15.00
2022-08-24T23:55:21.502Z,15.10
2022-08-24T23:57:51.291Z,15.00
